CCA1025 ZPPP-ZULS
Flight info
| Callsign | CCA1025 |
|---|---|
| Flight time | 2h 22m |
| Altitude | 35100 |
| Route | GULOT W146 BUBSU W162 UPGED L888 PEXUN B213 |
| Aircraft | A320/L-VGDW/C |
Departure
| Time | 2026-04-23 07:30 |
|---|---|
| Airport | Kunming Changshui International Airport (ZPPP) |
Arrival
| Time | 2026-04-23 09:52 |
|---|---|
| Airport | Lhasa Gonggar International Airport (ZULS) |
| Time | Latitude | Longitude | Altitude | Speed | Heading |
|---|---|---|---|---|---|
| 2026-04-23 07:21 | 25.10468 | 102.92811 | 6916 ft | 0 kts | 337° |
| 2026-04-23 07:24 | 25.10468 | 102.92810 | 6915 ft | 0 kts | 337° |
| 2026-04-23 07:24 | 25.10470 | 102.92809 | 6916 ft | 0 kts | 337° |
| 2026-04-23 07:24 | 25.10479 | 102.92805 | 6916 ft | 2 kts | 332° |
| 2026-04-23 07:24 | 25.10499 | 102.92792 | 6916 ft | 5 kts | 329° |
| 2026-04-23 07:25 | 25.10549 | 102.92764 | 6916 ft | 10 kts | 335° |
| 2026-04-23 07:25 | 25.10629 | 102.92720 | 6915 ft | 15 kts | 333° |
| 2026-04-23 07:25 | 25.10729 | 102.92651 | 6915 ft | 18 kts | 318° |
| 2026-04-23 07:25 | 25.10823 | 102.92532 | 6915 ft | 22 kts | 311° |
| 2026-04-23 07:26 | 25.10951 | 102.92572 | 6915 ft | 22 kts | 38° |
| 2026-04-23 07:26 | 25.11085 | 102.92687 | 6915 ft | 25 kts | 38° |
| 2026-04-23 07:26 | 25.11229 | 102.92815 | 6915 ft | 27 kts | 40° |
| 2026-04-23 07:26 | 25.11366 | 102.92941 | 6915 ft | 29 kts | 36° |
| 2026-04-23 07:27 | 25.12769 | 102.94160 | 6915 ft | 22 kts | 39° |
| 2026-04-23 07:27 | 25.12818 | 102.94202 | 6915 ft | 6 kts | 38° |
| 2026-04-23 07:27 | 25.12852 | 102.94233 | 6915 ft | 6 kts | 38° |
| 2026-04-23 07:27 | 25.12890 | 102.94262 | 6915 ft | 6 kts | 35° |
| 2026-04-23 07:28 | 25.12934 | 102.94275 | 6915 ft | 6 kts | 353° |
| 2026-04-23 07:28 | 25.12975 | 102.94243 | 6915 ft | 7 kts | 313° |
| 2026-04-23 07:28 | 25.13020 | 102.94179 | 6915 ft | 11 kts | 294° |
| 2026-04-23 07:28 | 25.12990 | 102.94109 | 6915 ft | 11 kts | 213° |
| 2026-04-23 07:29 | 25.12895 | 102.94033 | 6915 ft | 39 kts | 218° |
| 2026-04-23 07:29 | 25.12479 | 102.93675 | 6915 ft | 109 kts | 222° |
| 2026-04-23 07:29 | 25.11723 | 102.93005 | 6916 ft | 168 kts | 218° |
| 2026-04-23 07:29 | 25.10696 | 102.92116 | 7127 ft | 197 kts | 218° |
| 2026-04-23 07:30 | 25.09634 | 102.91167 | 7725 ft | 201 kts | 224° |
| 2026-04-23 07:30 | 25.08765 | 102.89969 | 8477 ft | 200 kts | 238° |
| 2026-04-23 07:30 | 25.08043 | 102.88660 | 9114 ft | 207 kts | 237° |
| 2026-04-23 07:30 | 25.07195 | 102.87319 | 9609 ft | 222 kts | 237° |
| 2026-04-23 07:31 | 25.06288 | 102.85912 | 10314 ft | 227 kts | 236° |
| 2026-04-23 07:31 | 25.05374 | 102.84534 | 11115 ft | 226 kts | 234° |
| 2026-04-23 07:31 | 25.04431 | 102.83133 | 11698 ft | 231 kts | 236° |
| 2026-04-23 07:31 | 25.03441 | 102.81671 | 11898 ft | 246 kts | 235° |
| 2026-04-23 07:32 | 25.02374 | 102.80094 | 12100 ft | 262 kts | 235° |
| 2026-04-23 07:32 | 25.01279 | 102.78482 | 12605 ft | 265 kts | 235° |
| 2026-04-23 07:32 | 25.00169 | 102.76849 | 13194 ft | 266 kts | 235° |
| 2026-04-23 07:32 | 24.99073 | 102.75241 | 13800 ft | 267 kts | 235° |
| 2026-04-23 07:33 | 24.98012 | 102.73543 | 14378 ft | 267 kts | 247° |
| 2026-04-23 07:33 | 24.97627 | 102.71584 | 14957 ft | 267 kts | 272° |
| 2026-04-23 07:33 | 24.98063 | 102.69605 | 15578 ft | 270 kts | 295° |
| 2026-04-23 07:33 | 24.99049 | 102.67814 | 16175 ft | 274 kts | 299° |
| 2026-04-23 07:34 | 25.00053 | 102.66043 | 16738 ft | 277 kts | 298° |
| 2026-04-23 07:34 | 25.01066 | 102.64238 | 17331 ft | 279 kts | 298° |
| 2026-04-23 07:34 | 25.02089 | 102.62410 | 17909 ft | 280 kts | 299° |
| 2026-04-23 07:34 | 25.03138 | 102.60590 | 18274 ft | 290 kts | 300° |
| 2026-04-23 07:35 | 25.04266 | 102.58669 | 18519 ft | 304 kts | 300° |
| 2026-04-23 07:35 | 25.05440 | 102.56667 | 18756 ft | 317 kts | 300° |
| 2026-04-23 07:35 | 25.06602 | 102.54573 | 18977 ft | 328 kts | 292° |
| 2026-04-23 07:35 | 25.07179 | 102.52150 | 19211 ft | 336 kts | 272° |
| 2026-04-23 07:36 | 25.06915 | 102.49561 | 19447 ft | 348 kts | 253° |
| 2026-04-23 07:36 | 25.05878 | 102.47097 | 19688 ft | 360 kts | 244° |
| 2026-04-23 07:36 | 25.04681 | 102.44613 | 19884 ft | 372 kts | 245° |
| 2026-04-23 07:36 | 25.03458 | 102.42048 | 20072 ft | 383 kts | 245° |
| 2026-04-23 07:37 | 25.02215 | 102.39436 | 20255 ft | 393 kts | 245° |
| 2026-04-23 07:37 | 25.00944 | 102.36767 | 20591 ft | 398 kts | 245° |
| 2026-04-23 07:37 | 24.99650 | 102.34051 | 21058 ft | 399 kts | 245° |
| 2026-04-23 07:37 | 24.98360 | 102.31338 | 21530 ft | 401 kts | 245° |
| 2026-04-23 07:38 | 24.97065 | 102.28611 | 21974 ft | 402 kts | 245° |
| 2026-04-23 07:38 | 24.95771 | 102.25892 | 22386 ft | 404 kts | 245° |
| 2026-04-23 07:38 | 24.94452 | 102.23123 | 22778 ft | 407 kts | 245° |
| 2026-04-23 07:38 | 24.93137 | 102.20363 | 23227 ft | 408 kts | 245° |
| 2026-04-23 07:39 | 24.91821 | 102.17607 | 23598 ft | 410 kts | 245° |
| 2026-04-23 07:39 | 24.90494 | 102.14825 | 23768 ft | 416 kts | 245° |
| 2026-04-23 07:39 | 24.89123 | 102.11968 | 24024 ft | 420 kts | 245° |
| 2026-04-23 07:39 | 24.87741 | 102.09113 | 24380 ft | 421 kts | 245° |
| 2026-04-23 07:40 | 24.86377 | 102.06300 | 24767 ft | 420 kts | 245° |
| 2026-04-23 07:40 | 24.85013 | 102.03470 | 25126 ft | 420 kts | 245° |
| 2026-04-23 07:40 | 24.83649 | 102.00636 | 25451 ft | 419 kts | 245° |
| 2026-04-23 07:40 | 24.82283 | 101.97796 | 25811 ft | 418 kts | 245° |
| 2026-04-23 07:41 | 24.80936 | 101.94997 | 26231 ft | 414 kts | 245° |
| 2026-04-23 07:41 | 24.79582 | 101.92185 | 26672 ft | 410 kts | 245° |
| 2026-04-23 07:41 | 24.78271 | 101.89459 | 27088 ft | 406 kts | 245° |
| 2026-04-23 07:41 | 24.76964 | 101.86734 | 27515 ft | 402 kts | 245° |
| 2026-04-23 07:42 | 24.75657 | 101.84023 | 27938 ft | 398 kts | 245° |
| 2026-04-23 07:42 | 24.74373 | 101.81354 | 28330 ft | 395 kts | 245° |
| 2026-04-23 07:42 | 24.73100 | 101.78703 | 28730 ft | 391 kts | 245° |
| 2026-04-23 07:42 | 24.71832 | 101.76073 | 29145 ft | 387 kts | 245° |
| 2026-04-23 07:43 | 24.70569 | 101.73459 | 29502 ft | 385 kts | 246° |
| 2026-04-23 07:43 | 24.69320 | 101.70866 | 29802 ft | 384 kts | 246° |
| 2026-04-23 07:43 | 24.68073 | 101.68284 | 30060 ft | 384 kts | 246° |
| 2026-04-23 07:43 | 24.66835 | 101.65718 | 30334 ft | 383 kts | 247° |
| 2026-04-23 07:44 | 24.65747 | 101.63067 | 30594 ft | 380 kts | 252° |
| 2026-04-23 07:44 | 24.64954 | 101.60294 | 30903 ft | 376 kts | 258° |
| 2026-04-23 07:44 | 24.64455 | 101.57496 | 31212 ft | 373 kts | 264° |
| 2026-04-23 07:44 | 24.64243 | 101.54697 | 31493 ft | 371 kts | 269° |
| 2026-04-23 07:45 | 24.64312 | 101.51849 | 31765 ft | 370 kts | 274° |
| 2026-04-23 07:45 | 24.64667 | 101.49046 | 32033 ft | 370 kts | 279° |
| 2026-04-23 07:45 | 24.65287 | 101.46332 | 32310 ft | 370 kts | 283° |
| 2026-04-23 07:45 | 24.66021 | 101.43626 | 32599 ft | 368 kts | 284° |
| 2026-04-23 07:46 | 24.66765 | 101.40927 | 32900 ft | 366 kts | 283° |
| 2026-04-23 07:46 | 24.67495 | 101.38288 | 33190 ft | 364 kts | 284° |
| 2026-04-23 07:46 | 24.68241 | 101.35621 | 33429 ft | 364 kts | 284° |
| 2026-04-23 07:46 | 24.68987 | 101.32948 | 33644 ft | 364 kts | 283° |
| 2026-04-23 07:47 | 24.69726 | 101.30293 | 33856 ft | 364 kts | 283° |
| 2026-04-23 07:47 | 24.70472 | 101.27620 | 34051 ft | 365 kts | 283° |
| 2026-04-23 07:47 | 24.71209 | 101.24984 | 34221 ft | 365 kts | 284° |
| 2026-04-23 07:47 | 24.71960 | 101.22300 | 34385 ft | 366 kts | 284° |
| 2026-04-23 07:48 | 24.72710 | 101.19624 | 34568 ft | 366 kts | 284° |
| 2026-04-23 07:48 | 24.73453 | 101.16978 | 34719 ft | 366 kts | 284° |
| 2026-04-23 07:48 | 24.74204 | 101.14292 | 34871 ft | 366 kts | 284° |
| 2026-04-23 07:48 | 24.74960 | 101.11596 | 35034 ft | 366 kts | 284° |
| 2026-04-23 07:49 | 24.75707 | 101.08927 | 35137 ft | 367 kts | 284° |
| 2026-04-23 07:49 | 24.77207 | 101.03562 | 35209 ft | 368 kts | 284° |
| 2026-04-23 07:50 | 24.78711 | 100.98180 | 35199 ft | 368 kts | 284° |
| 2026-04-23 07:50 | 24.80211 | 100.92808 | 35223 ft | 368 kts | 284° |
| 2026-04-23 07:51 | 24.81699 | 100.87454 | 35244 ft | 368 kts | 284° |
| 2026-04-23 07:51 | 24.83191 | 100.82093 | 35263 ft | 367 kts | 284° |
| 2026-04-23 07:52 | 24.84686 | 100.76715 | 35271 ft | 367 kts | 284° |
| 2026-04-23 07:52 | 24.86178 | 100.71329 | 35273 ft | 367 kts | 284° |
| 2026-04-23 07:53 | 24.87667 | 100.65949 | 35270 ft | 367 kts | 284° |
| 2026-04-23 07:53 | 24.89148 | 100.60595 | 35265 ft | 367 kts | 284° |
| 2026-04-23 07:54 | 24.90632 | 100.55215 | 35262 ft | 367 kts | 284° |
| 2026-04-23 07:54 | 24.92108 | 100.49853 | 35257 ft | 366 kts | 284° |
| 2026-04-23 07:55 | 24.93582 | 100.44492 | 35250 ft | 367 kts | 284° |
| 2026-04-23 07:55 | 24.95049 | 100.39141 | 35245 ft | 366 kts | 284° |
| 2026-04-23 07:56 | 24.96784 | 100.33847 | 35254 ft | 371 kts | 293° |
| 2026-04-23 07:56 | 25.00046 | 100.29338 | 35274 ft | 387 kts | 310° |
| 2026-04-23 07:56 | 25.02259 | 100.27548 | 35286 ft | 399 kts | 319° |
| 2026-04-23 07:57 | 25.04798 | 100.26205 | 35286 ft | 414 kts | 329° |
| 2026-04-23 07:57 | 25.07661 | 100.25386 | 35288 ft | 430 kts | 339° |
| 2026-04-23 07:57 | 25.10624 | 100.24943 | 35283 ft | 433 kts | 340° |
| 2026-04-23 07:58 | 25.16686 | 100.24147 | 35270 ft | 435 kts | 340° |
| 2026-04-23 07:58 | 25.22584 | 100.22974 | 35266 ft | 425 kts | 334° |
| 2026-04-23 07:59 | 25.28265 | 100.21337 | 35268 ft | 421 kts | 332° |
| 2026-04-23 07:59 | 25.33949 | 100.19655 | 35275 ft | 422 kts | 333° |
| 2026-04-23 08:00 | 25.39624 | 100.17972 | 35275 ft | 423 kts | 333° |
| 2026-04-23 08:00 | 25.45338 | 100.16276 | 35287 ft | 423 kts | 332° |
| 2026-04-23 08:01 | 25.51015 | 100.14590 | 35294 ft | 422 kts | 332° |
| 2026-04-23 08:01 | 25.56719 | 100.12895 | 35317 ft | 422 kts | 333° |
| 2026-04-23 08:02 | 25.62386 | 100.11208 | 35338 ft | 423 kts | 332° |
| 2026-04-23 08:02 | 25.68077 | 100.09513 | 35352 ft | 424 kts | 332° |
| 2026-04-23 08:03 | 25.73802 | 100.07806 | 35366 ft | 424 kts | 332° |
| 2026-04-23 08:03 | 25.79501 | 100.06105 | 35364 ft | 422 kts | 332° |
| 2026-04-23 08:04 | 25.85160 | 100.04414 | 35372 ft | 423 kts | 332° |
| 2026-04-23 08:04 | 25.90877 | 100.02702 | 35387 ft | 424 kts | 332° |
| 2026-04-23 08:05 | 25.96642 | 100.01161 | 35389 ft | 432 kts | 336° |
| 2026-04-23 08:05 | 26.02674 | 100.00229 | 35413 ft | 442 kts | 342° |
| 2026-04-23 08:06 | 26.08892 | 99.99969 | 35410 ft | 449 kts | 346° |
| 2026-04-23 08:06 | 26.15171 | 99.99985 | 35409 ft | 450 kts | 347° |
| 2026-04-23 08:07 | 26.21495 | 99.99995 | 35399 ft | 450 kts | 347° |
| 2026-04-23 08:07 | 26.27757 | 100.00005 | 35393 ft | 451 kts | 347° |
| 2026-04-23 08:08 | 26.34046 | 100.00008 | 35405 ft | 451 kts | 348° |
| 2026-04-23 08:08 | 26.40317 | 100.00005 | 35420 ft | 450 kts | 348° |
| 2026-04-23 08:09 | 26.46589 | 100.00010 | 35414 ft | 448 kts | 348° |
| 2026-04-23 08:09 | 26.52879 | 100.00008 | 35430 ft | 451 kts | 348° |
| 2026-04-23 08:10 | 26.59140 | 100.00005 | 35425 ft | 448 kts | 348° |
| 2026-04-23 08:10 | 26.68524 | 100.00003 | 35422 ft | 450 kts | 349° |
| 2026-04-23 08:11 | 26.74778 | 99.99998 | 35416 ft | 450 kts | 349° |
| 2026-04-23 08:11 | 26.81064 | 99.99998 | 35399 ft | 450 kts | 349° |
| 2026-04-23 08:12 | 26.87334 | 99.99995 | 35401 ft | 450 kts | 349° |
| 2026-04-23 08:12 | 26.93615 | 99.99992 | 35401 ft | 450 kts | 349° |
| 2026-04-23 08:13 | 26.99872 | 99.99991 | 35409 ft | 451 kts | 350° |
| 2026-04-23 08:13 | 27.06150 | 99.99986 | 35432 ft | 450 kts | 350° |
| 2026-04-23 08:14 | 27.12405 | 99.99988 | 35442 ft | 450 kts | 350° |
| 2026-04-23 08:14 | 27.18678 | 99.99989 | 35470 ft | 446 kts | 351° |
| 2026-04-23 08:15 | 27.24913 | 99.99992 | 35470 ft | 447 kts | 351° |
| 2026-04-23 08:15 | 27.31141 | 99.99986 | 35488 ft | 447 kts | 351° |
| 2026-04-23 08:16 | 27.37353 | 99.99979 | 35550 ft | 444 kts | 351° |
| 2026-04-23 08:16 | 27.43568 | 99.99978 | 35560 ft | 446 kts | 351° |
| 2026-04-23 08:17 | 27.49754 | 99.99982 | 35600 ft | 442 kts | 352° |
| 2026-04-23 08:17 | 27.55918 | 99.99985 | 35584 ft | 445 kts | 351° |
| 2026-04-23 08:18 | 27.62163 | 99.99987 | 35615 ft | 445 kts | 352° |
| 2026-04-23 08:18 | 27.68311 | 99.99985 | 35630 ft | 440 kts | 352° |
| 2026-04-23 08:19 | 27.74449 | 99.99983 | 35637 ft | 441 kts | 352° |
| 2026-04-23 08:19 | 27.80591 | 99.99984 | 35635 ft | 442 kts | 352° |
| 2026-04-23 08:20 | 27.86780 | 99.99978 | 35642 ft | 442 kts | 353° |
| 2026-04-23 08:20 | 27.92915 | 99.99975 | 35667 ft | 441 kts | 353° |
| 2026-04-23 08:21 | 27.99063 | 99.99979 | 35687 ft | 440 kts | 353° |
| 2026-04-23 08:21 | 28.05166 | 99.99959 | 35676 ft | 439 kts | 353° |
| 2026-04-23 08:22 | 28.11347 | 99.99972 | 35698 ft | 442 kts | 354° |
| 2026-04-23 08:22 | 28.17505 | 99.99975 | 35693 ft | 440 kts | 353° |
| 2026-04-23 08:23 | 28.23648 | 99.99976 | 35684 ft | 439 kts | 354° |
| 2026-04-23 08:23 | 28.29777 | 99.99960 | 35681 ft | 440 kts | 354° |
| 2026-04-23 08:24 | 28.35920 | 99.99972 | 35685 ft | 441 kts | 354° |
| 2026-04-23 08:24 | 28.42045 | 99.99961 | 35695 ft | 441 kts | 354° |
| 2026-04-23 08:25 | 28.48178 | 99.99975 | 35697 ft | 442 kts | 354° |
| 2026-04-23 08:25 | 28.54346 | 99.99969 | 35707 ft | 438 kts | 354° |
| 2026-04-23 08:26 | 28.60474 | 99.99978 | 35705 ft | 441 kts | 354° |
| 2026-04-23 08:26 | 28.66586 | 99.99973 | 35707 ft | 442 kts | 355° |
| 2026-04-23 08:27 | 28.72773 | 99.99976 | 35719 ft | 441 kts | 355° |
| 2026-04-23 08:27 | 28.78927 | 99.99974 | 35722 ft | 442 kts | 355° |
| 2026-04-23 08:28 | 28.85088 | 99.99976 | 35738 ft | 442 kts | 355° |
| 2026-04-23 08:28 | 28.91245 | 99.99976 | 35748 ft | 441 kts | 355° |
| 2026-04-23 08:29 | 28.97355 | 99.99976 | 35749 ft | 441 kts | 355° |
| 2026-04-23 08:29 | 29.03523 | 99.99979 | 35744 ft | 441 kts | 355° |
| 2026-04-23 08:30 | 29.09678 | 99.99973 | 35750 ft | 441 kts | 355° |
| 2026-04-23 08:30 | 29.15825 | 99.99983 | 35766 ft | 440 kts | 354° |
| 2026-04-23 08:31 | 29.21942 | 99.99985 | 35766 ft | 439 kts | 355° |
| 2026-04-23 08:31 | 29.28052 | 99.99979 | 35761 ft | 437 kts | 355° |
| 2026-04-23 08:32 | 29.34115 | 99.99979 | 35767 ft | 438 kts | 355° |
| 2026-04-23 08:32 | 29.40236 | 99.99983 | 35791 ft | 436 kts | 355° |
| 2026-04-23 08:33 | 29.43225 | 99.99982 | 35525 ft | 435 kts | 355° |
| 2026-04-23 08:33 | 29.46286 | 99.99983 | 35657 ft | 435 kts | 355° |
| 2026-04-23 08:33 | 29.52368 | 99.99985 | 35749 ft | 436 kts | 355° |
| 2026-04-23 08:34 | 29.58435 | 99.99980 | 35757 ft | 436 kts | 355° |
| 2026-04-23 08:34 | 29.64489 | 99.99984 | 35776 ft | 434 kts | 355° |
| 2026-04-23 08:35 | 29.70521 | 99.99985 | 35766 ft | 433 kts | 355° |
| 2026-04-23 08:35 | 29.76508 | 99.99982 | 35777 ft | 430 kts | 355° |
| 2026-04-23 08:36 | 29.82490 | 99.99985 | 35781 ft | 429 kts | 355° |
| 2026-04-23 08:36 | 29.88511 | 99.99985 | 35788 ft | 429 kts | 355° |
| 2026-04-23 08:37 | 29.94445 | 99.99984 | 35797 ft | 427 kts | 355° |
| 2026-04-23 08:37 | 30.00398 | 99.99985 | 35801 ft | 426 kts | 355° |
| 2026-04-23 08:38 | 30.06307 | 99.99986 | 35796 ft | 424 kts | 355° |
| 2026-04-23 08:38 | 30.12212 | 99.99990 | 35797 ft | 423 kts | 356° |
| 2026-04-23 08:39 | 30.18050 | 99.99794 | 35794 ft | 417 kts | 346° |
| 2026-04-23 08:39 | 30.20822 | 99.98876 | 35797 ft | 412 kts | 334° |
| 2026-04-23 08:39 | 30.23342 | 99.97308 | 35804 ft | 408 kts | 323° |
| 2026-04-23 08:40 | 30.27244 | 99.92636 | 35800 ft | 408 kts | 303° |
| 2026-04-23 08:40 | 30.28508 | 99.89677 | 35805 ft | 412 kts | 292° |
| 2026-04-23 08:40 | 30.29218 | 99.86490 | 35802 ft | 416 kts | 282° |
| 2026-04-23 08:41 | 30.29877 | 99.79845 | 35786 ft | 418 kts | 281° |
| 2026-04-23 08:41 | 30.30489 | 99.73184 | 35771 ft | 419 kts | 280° |
| 2026-04-23 08:42 | 30.31084 | 99.66492 | 35764 ft | 419 kts | 280° |
| 2026-04-23 08:42 | 30.31674 | 99.59795 | 35757 ft | 419 kts | 281° |
| 2026-04-23 08:43 | 30.32264 | 99.53074 | 35740 ft | 420 kts | 281° |
| 2026-04-23 08:43 | 30.32847 | 99.46351 | 35731 ft | 420 kts | 281° |
| 2026-04-23 08:44 | 30.33427 | 99.39664 | 35720 ft | 419 kts | 281° |
| 2026-04-23 08:44 | 30.34004 | 99.32954 | 35723 ft | 420 kts | 280° |
| 2026-04-23 08:45 | 30.34569 | 99.26236 | 35719 ft | 420 kts | 281° |
| 2026-04-23 08:45 | 30.35140 | 99.19495 | 35707 ft | 421 kts | 280° |
| 2026-04-23 08:46 | 30.35711 | 99.12718 | 35698 ft | 422 kts | 280° |
| 2026-04-23 08:46 | 30.36274 | 99.05957 | 35698 ft | 421 kts | 280° |
| 2026-04-23 08:47 | 30.36838 | 98.99198 | 35683 ft | 420 kts | 281° |
| 2026-04-23 08:47 | 30.37401 | 98.92399 | 35673 ft | 422 kts | 281° |
| 2026-04-23 08:48 | 30.37955 | 98.85644 | 35935 ft | 422 kts | 281° |
| 2026-04-23 08:48 | 30.38230 | 98.82272 | 35769 ft | 420 kts | 281° |
| 2026-04-23 08:48 | 30.38506 | 98.78868 | 35720 ft | 420 kts | 281° |
| 2026-04-23 08:49 | 30.39056 | 98.72149 | 35700 ft | 422 kts | 280° |
| 2026-04-23 08:49 | 30.39598 | 98.65367 | 35694 ft | 422 kts | 281° |
| 2026-04-23 08:50 | 30.40142 | 98.58604 | 35705 ft | 420 kts | 281° |
| 2026-04-23 08:50 | 30.40675 | 98.51875 | 35702 ft | 421 kts | 281° |
| 2026-04-23 08:51 | 30.41207 | 98.45147 | 35707 ft | 421 kts | 281° |
| 2026-04-23 08:51 | 30.41738 | 98.38342 | 35705 ft | 422 kts | 281° |
| 2026-04-23 08:52 | 30.42265 | 98.31539 | 35721 ft | 423 kts | 281° |
| 2026-04-23 08:52 | 30.42784 | 98.24771 | 35726 ft | 422 kts | 281° |
| 2026-04-23 08:53 | 30.43310 | 98.17989 | 35733 ft | 423 kts | 281° |
| 2026-04-23 08:53 | 30.43913 | 98.11247 | 35736 ft | 421 kts | 281° |
| 2026-04-23 08:54 | 30.44520 | 98.04524 | 35744 ft | 421 kts | 281° |
| 2026-04-23 08:54 | 30.45118 | 97.97768 | 35762 ft | 422 kts | 282° |
| 2026-04-23 08:55 | 30.45712 | 97.91005 | 35758 ft | 422 kts | 282° |
| 2026-04-23 08:55 | 30.46303 | 97.84226 | 35772 ft | 424 kts | 282° |
| 2026-04-23 08:56 | 30.46889 | 97.77470 | 35778 ft | 422 kts | 282° |
| 2026-04-23 08:56 | 30.47470 | 97.70702 | 35770 ft | 423 kts | 282° |
| 2026-04-23 08:57 | 30.48047 | 97.63930 | 35788 ft | 423 kts | 282° |
| 2026-04-23 08:57 | 30.48623 | 97.57153 | 35771 ft | 422 kts | 282° |
| 2026-04-23 08:58 | 30.49191 | 97.50397 | 35780 ft | 422 kts | 282° |
| 2026-04-23 08:58 | 30.49757 | 97.43629 | 35794 ft | 422 kts | 282° |
| 2026-04-23 08:59 | 30.50315 | 97.36900 | 35801 ft | 422 kts | 282° |
| 2026-04-23 08:59 | 30.50869 | 97.30123 | 35794 ft | 422 kts | 282° |
| 2026-04-23 09:00 | 30.51411 | 97.23367 | 35811 ft | 423 kts | 281° |
| 2026-04-23 09:00 | 30.51546 | 97.16523 | 35806 ft | 427 kts | 275° |
| 2026-04-23 09:01 | 30.51061 | 97.09570 | 35829 ft | 435 kts | 269° |
| 2026-04-23 09:01 | 30.49948 | 97.02634 | 35829 ft | 437 kts | 265° |
| 2026-04-23 09:02 | 30.48628 | 96.95781 | 35806 ft | 438 kts | 265° |
| 2026-04-23 09:02 | 30.47291 | 96.88880 | 35833 ft | 439 kts | 265° |
| 2026-04-23 09:03 | 30.45961 | 96.82039 | 35826 ft | 437 kts | 265° |
| 2026-04-23 09:03 | 30.44629 | 96.75182 | 35848 ft | 437 kts | 264° |
| 2026-04-23 09:04 | 30.43289 | 96.68330 | 35843 ft | 438 kts | 265° |
| 2026-04-23 09:04 | 30.41947 | 96.61464 | 35850 ft | 437 kts | 265° |
| 2026-04-23 09:05 | 30.40598 | 96.54600 | 35836 ft | 437 kts | 265° |
| 2026-04-23 09:05 | 30.39249 | 96.47741 | 35831 ft | 437 kts | 265° |
| 2026-04-23 09:06 | 30.37891 | 96.40859 | 35856 ft | 438 kts | 265° |
| 2026-04-23 09:06 | 30.36536 | 96.34032 | 35844 ft | 437 kts | 264° |
| 2026-04-23 09:07 | 30.35179 | 96.27195 | 35838 ft | 439 kts | 264° |
| 2026-04-23 09:07 | 30.33802 | 96.20280 | 35812 ft | 441 kts | 264° |
| 2026-04-23 09:08 | 30.32424 | 96.13381 | 35825 ft | 441 kts | 264° |
| 2026-04-23 09:08 | 30.31037 | 96.06479 | 35831 ft | 439 kts | 264° |
| 2026-04-23 09:09 | 30.29658 | 95.99597 | 35808 ft | 438 kts | 264° |
| 2026-04-23 09:09 | 30.28346 | 95.92731 | 35810 ft | 439 kts | 265° |
| 2026-04-23 09:10 | 30.26367 | 95.82355 | 35799 ft | 442 kts | 264° |
| 2026-04-23 09:11 | 30.25027 | 95.75410 | 35798 ft | 443 kts | 265° |
| 2026-04-23 09:11 | 30.23689 | 95.68480 | 35806 ft | 442 kts | 264° |
| 2026-04-23 09:12 | 30.22351 | 95.61579 | 35775 ft | 442 kts | 264° |
| 2026-04-23 09:12 | 30.20998 | 95.54639 | 35766 ft | 443 kts | 264° |
| 2026-04-23 09:13 | 30.19647 | 95.47706 | 35763 ft | 443 kts | 264° |
| 2026-04-23 09:13 | 30.18290 | 95.40788 | 35747 ft | 445 kts | 264° |
| 2026-04-23 09:14 | 30.16917 | 95.33786 | 35739 ft | 447 kts | 264° |
| 2026-04-23 09:14 | 30.15539 | 95.26792 | 35758 ft | 446 kts | 264° |
| 2026-04-23 09:15 | 30.14153 | 95.19770 | 35736 ft | 449 kts | 264° |
| 2026-04-23 09:15 | 30.12769 | 95.12800 | 35725 ft | 447 kts | 264° |
| 2026-04-23 09:16 | 30.11365 | 95.05756 | 35697 ft | 450 kts | 264° |
| 2026-04-23 09:16 | 30.09961 | 94.98717 | 35690 ft | 449 kts | 264° |
| 2026-04-23 09:17 | 30.08605 | 94.91698 | 35685 ft | 450 kts | 264° |
| 2026-04-23 09:17 | 30.07278 | 94.84676 | 35720 ft | 448 kts | 264° |
| 2026-04-23 09:18 | 30.05936 | 94.77660 | 35695 ft | 448 kts | 264° |
| 2026-04-23 09:18 | 30.04588 | 94.70641 | 35707 ft | 449 kts | 264° |
| 2026-04-23 09:19 | 30.03244 | 94.63669 | 35729 ft | 448 kts | 264° |
| 2026-04-23 09:19 | 30.01889 | 94.56664 | 35754 ft | 448 kts | 263° |
| 2026-04-23 09:20 | 30.00526 | 94.49646 | 35770 ft | 448 kts | 263° |
| 2026-04-23 09:20 | 29.99161 | 94.42645 | 35784 ft | 448 kts | 263° |
| 2026-04-23 09:21 | 29.97786 | 94.35615 | 35782 ft | 447 kts | 263° |
| 2026-04-23 09:21 | 29.96422 | 94.28655 | 35807 ft | 448 kts | 263° |
| 2026-04-23 09:22 | 29.95037 | 94.21607 | 35833 ft | 448 kts | 263° |
| 2026-04-23 09:22 | 29.93661 | 94.14644 | 35842 ft | 447 kts | 262° |
| 2026-04-23 09:23 | 29.92280 | 94.07684 | 35862 ft | 448 kts | 262° |
| 2026-04-23 09:23 | 29.90854 | 94.00716 | 35891 ft | 450 kts | 260° |
| 2026-04-23 09:24 | 29.88877 | 93.93790 | 35913 ft | 456 kts | 253° |
| 2026-04-23 09:24 | 29.86202 | 93.87135 | 35915 ft | 459 kts | 248° |
| 2026-04-23 09:25 | 29.83103 | 93.80686 | 35913 ft | 458 kts | 246° |
| 2026-04-23 09:25 | 29.79994 | 93.74273 | 35910 ft | 460 kts | 246° |
| 2026-04-23 09:26 | 29.76884 | 93.67848 | 35918 ft | 459 kts | 246° |
| 2026-04-23 09:26 | 29.73784 | 93.61443 | 35931 ft | 459 kts | 246° |
| 2026-04-23 09:27 | 29.70666 | 93.55009 | 35928 ft | 461 kts | 246° |
| 2026-04-23 09:27 | 29.67550 | 93.48586 | 35930 ft | 460 kts | 246° |
| 2026-04-23 09:28 | 29.64456 | 93.42226 | 35920 ft | 459 kts | 246° |
| 2026-04-23 09:28 | 29.61324 | 93.35796 | 35927 ft | 461 kts | 246° |
| 2026-04-23 09:29 | 29.58216 | 93.29401 | 35937 ft | 460 kts | 246° |
| 2026-04-23 09:29 | 29.55078 | 93.22955 | 35924 ft | 461 kts | 246° |
| 2026-04-23 09:30 | 29.51946 | 93.16559 | 35930 ft | 460 kts | 246° |
| 2026-04-23 09:30 | 29.48815 | 93.10165 | 35928 ft | 461 kts | 245° |
| 2026-04-23 09:31 | 29.45671 | 93.03764 | 35936 ft | 462 kts | 245° |
| 2026-04-23 09:31 | 29.42529 | 92.97375 | 35926 ft | 462 kts | 246° |
| 2026-04-23 09:32 | 29.39368 | 92.90964 | 35927 ft | 461 kts | 245° |
| 2026-04-23 09:32 | 29.36225 | 92.84594 | 35930 ft | 460 kts | 245° |
| 2026-04-23 09:33 | 29.33058 | 92.78194 | 35932 ft | 461 kts | 246° |
| 2026-04-23 09:33 | 29.29916 | 92.71858 | 35931 ft | 460 kts | 245° |
| 2026-04-23 09:34 | 29.26888 | 92.65419 | 35939 ft | 458 kts | 250° |
| 2026-04-23 09:34 | 29.24785 | 92.58611 | 35954 ft | 453 kts | 261° |
| 2026-04-23 09:35 | 29.23752 | 92.51549 | 35960 ft | 445 kts | 270° |
| 2026-04-23 09:35 | 29.23716 | 92.44469 | 35515 ft | 445 kts | 276° |
| 2026-04-23 09:35 | 29.23818 | 92.40937 | 34694 ft | 447 kts | 277° |
| 2026-04-23 09:36 | 29.23926 | 92.37403 | 33830 ft | 450 kts | 277° |
| 2026-04-23 09:36 | 29.24031 | 92.33825 | 32947 ft | 453 kts | 276° |
| 2026-04-23 09:36 | 29.24133 | 92.30187 | 32052 ft | 455 kts | 276° |
| 2026-04-23 09:36 | 29.24230 | 92.26611 | 31264 ft | 455 kts | 276° |
| 2026-04-23 09:37 | 29.24323 | 92.22975 | 30512 ft | 454 kts | 276° |
| 2026-04-23 09:37 | 29.24421 | 92.19360 | 29551 ft | 457 kts | 276° |
| 2026-04-23 09:37 | 29.24526 | 92.15762 | 28557 ft | 460 kts | 276° |
| 2026-04-23 09:37 | 29.24630 | 92.12116 | 27617 ft | 461 kts | 276° |
| 2026-04-23 09:38 | 29.24731 | 92.08425 | 26681 ft | 461 kts | 275° |
| 2026-04-23 09:38 | 29.24827 | 92.04809 | 25774 ft | 461 kts | 275° |
| 2026-04-23 09:38 | 29.24917 | 92.01168 | 25462 ft | 447 kts | 275° |
| 2026-04-23 09:38 | 29.25000 | 91.97683 | 25316 ft | 431 kts | 274° |
| 2026-04-23 09:39 | 29.25079 | 91.94355 | 25204 ft | 415 kts | 275° |
| 2026-04-23 09:39 | 29.25154 | 91.91102 | 25084 ft | 401 kts | 275° |
| 2026-04-23 09:39 | 29.25229 | 91.87978 | 24959 ft | 387 kts | 275° |
| 2026-04-23 09:39 | 29.25303 | 91.84927 | 24832 ft | 375 kts | 275° |
| 2026-04-23 09:40 | 29.25373 | 91.82024 | 24725 ft | 362 kts | 275° |
| 2026-04-23 09:40 | 29.25441 | 91.79195 | 24629 ft | 349 kts | 275° |
| 2026-04-23 09:40 | 29.25515 | 91.76469 | 24544 ft | 336 kts | 276° |
| 2026-04-23 09:40 | 29.25664 | 91.73804 | 24193 ft | 332 kts | 277° |
| 2026-04-23 09:41 | 29.25821 | 91.71207 | 23799 ft | 329 kts | 277° |
| 2026-04-23 09:41 | 29.25979 | 91.68601 | 23433 ft | 325 kts | 277° |
| 2026-04-23 09:41 | 29.26131 | 91.66045 | 23081 ft | 322 kts | 276° |
| 2026-04-23 09:41 | 29.26280 | 91.63497 | 22734 ft | 318 kts | 276° |
| 2026-04-23 09:42 | 29.26425 | 91.60983 | 22392 ft | 314 kts | 276° |
| 2026-04-23 09:42 | 29.26569 | 91.58501 | 22058 ft | 310 kts | 276° |
| 2026-04-23 09:42 | 29.26710 | 91.56050 | 21732 ft | 306 kts | 276° |
| 2026-04-23 09:42 | 29.26849 | 91.53616 | 21415 ft | 302 kts | 276° |
| 2026-04-23 09:43 | 29.26986 | 91.51238 | 21105 ft | 298 kts | 276° |
| 2026-04-23 09:43 | 29.27154 | 91.48905 | 20801 ft | 294 kts | 280° |
| 2026-04-23 09:43 | 29.27548 | 91.46652 | 20506 ft | 290 kts | 287° |
| 2026-04-23 09:43 | 29.28195 | 91.44450 | 20193 ft | 286 kts | 292° |
| 2026-04-23 09:44 | 29.28913 | 91.42336 | 19886 ft | 285 kts | 293° |
| 2026-04-23 09:44 | 29.29636 | 91.40237 | 19586 ft | 283 kts | 293° |
| 2026-04-23 09:44 | 29.30220 | 91.38123 | 19476 ft | 277 kts | 283° |
| 2026-04-23 09:44 | 29.30460 | 91.35910 | 19385 ft | 280 kts | 273° |
| 2026-04-23 09:45 | 29.30460 | 91.33678 | 19124 ft | 281 kts | 270° |
| 2026-04-23 09:45 | 29.30414 | 91.31464 | 18908 ft | 278 kts | 270° |
| 2026-04-23 09:45 | 29.30371 | 91.29307 | 18702 ft | 263 kts | 271° |
| 2026-04-23 09:45 | 29.30359 | 91.27252 | 18484 ft | 256 kts | 271° |
| 2026-04-23 09:46 | 29.30349 | 91.25242 | 18192 ft | 245 kts | 271° |
| 2026-04-23 09:46 | 29.30329 | 91.23338 | 17805 ft | 237 kts | 270° |
| 2026-04-23 09:46 | 29.30302 | 91.21487 | 17491 ft | 226 kts | 270° |
| 2026-04-23 09:46 | 29.30271 | 91.19730 | 17167 ft | 216 kts | 270° |
| 2026-04-23 09:47 | 29.30240 | 91.18072 | 16874 ft | 205 kts | 270° |
| 2026-04-23 09:47 | 29.30209 | 91.16480 | 16597 ft | 194 kts | 270° |
| 2026-04-23 09:47 | 29.30181 | 91.14941 | 16354 ft | 192 kts | 270° |
| 2026-04-23 09:47 | 29.30153 | 91.13405 | 16103 ft | 193 kts | 271° |
| 2026-04-23 09:48 | 29.30126 | 91.11884 | 15860 ft | 190 kts | 270° |
| 2026-04-23 09:48 | 29.30100 | 91.10394 | 15593 ft | 183 kts | 270° |
| 2026-04-23 09:48 | 29.30075 | 91.08948 | 15355 ft | 181 kts | 270° |
| 2026-04-23 09:48 | 29.30052 | 91.07531 | 15127 ft | 180 kts | 270° |
| 2026-04-23 09:49 | 29.30028 | 91.06094 | 14888 ft | 180 kts | 270° |
| 2026-04-23 09:49 | 29.30006 | 91.04672 | 14645 ft | 179 kts | 270° |
| 2026-04-23 09:49 | 29.29983 | 91.03242 | 14405 ft | 178 kts | 270° |
| 2026-04-23 09:49 | 29.29961 | 91.01838 | 14172 ft | 178 kts | 270° |
| 2026-04-23 09:50 | 29.29939 | 91.00426 | 13932 ft | 177 kts | 270° |
| 2026-04-23 09:50 | 29.29917 | 90.99019 | 13667 ft | 177 kts | 270° |
| 2026-04-23 09:50 | 29.29887 | 90.97606 | 13159 ft | 183 kts | 270° |
| 2026-04-23 09:50 | 29.29877 | 90.96146 | 12625 ft | 186 kts | 271° |
| 2026-04-23 09:51 | 29.29859 | 90.94672 | 12220 ft | 179 kts | 269° |
| 2026-04-23 09:51 | 29.29835 | 90.93291 | 11957 ft | 168 kts | 268° |
| 2026-04-23 09:51 | 29.29822 | 90.92100 | 11934 ft | 114 kts | 271° |
| 2026-04-23 09:51 | 29.29811 | 90.91454 | 11934 ft | 63 kts | 269° |
| 2026-04-23 09:52 | 29.29803 | 90.90973 | 11938 ft | 57 kts | 270° |
| 2026-04-23 09:52 | 29.29799 | 90.90555 | 11943 ft | 42 kts | 261° |
| 2026-04-23 09:52 | 29.29730 | 90.90366 | 11943 ft | 21 kts | 245° |
| 2026-04-23 09:52 | 29.29664 | 90.90219 | 11944 ft | 20 kts | 243° |
| 2026-04-23 09:53 | 29.29627 | 90.90067 | 11943 ft | 19 kts | 268° |
| 2026-04-23 09:53 | 29.29627 | 90.89911 | 11943 ft | 19 kts | 271° |
| 2026-04-23 09:53 | 29.29628 | 90.89764 | 11944 ft | 17 kts | 268° |
| 2026-04-23 09:53 | 29.29622 | 90.89645 | 11945 ft | 10 kts | 262° |
| 2026-04-23 09:54 | 29.29574 | 90.89598 | 11945 ft | 10 kts | 182° |
| 2026-04-23 09:54 | 29.29521 | 90.89564 | 11946 ft | 9 kts | 250° |
| 2026-04-23 09:54 | 29.29515 | 90.89490 | 11946 ft | 9 kts | 270° |
| 2026-04-23 09:54 | 29.29515 | 90.89410 | 11946 ft | 10 kts | 270° |
| 2026-04-23 09:55 | 29.29515 | 90.89322 | 11945 ft | 11 kts | 270° |
| 2026-04-23 09:55 | 29.29512 | 90.89229 | 11945 ft | 11 kts | 250° |
| 2026-04-23 09:55 | 29.29442 | 90.89193 | 11946 ft | 11 kts | 200° |
| 2026-04-23 09:55 | 29.29378 | 90.89189 | 11947 ft | 8 kts | 132° |
| 2026-04-23 09:56 | 29.29355 | 90.89253 | 11948 ft | 8 kts | 104° |
| 2026-04-23 09:56 | 29.29350 | 90.89275 | 11948 ft | 0 kts | 104° |